Latest Coastal Weather Observations for Gunn Point

IDD60701

Issued at 4:31 pm CST Saturday 31 January 2015 (issued every 10 minutes, with the page automatically refreshed every 10 minutes)

About coastal observations | Map of coastal stations | Coastal observations for NT | Marine services | Other Formats
Station Details ID: 014023 Name: GUNN POINT Lat: -12.25 Lon: 131.04 Height: 25.0 m
Data from the previous 72 hours. | See also: Recent months for locations in Northern Territory
Date/Time
CST
Temp

°C
Wind Pressure Rain
since 9am
mm
Weather Cloud Vis
km
Sea
Height
m
Swell
Dir
 
Speed
knots
Gust
knots
hPa Trend Height
m
Period
s
Dir
31/04:30pm 29.6 W 8 13 1006.1 - 0.0 - - - - - - -
31/04:00pm 29.9 W 8 13 1006.1 - 0.0 - - - - - - -
31/03:30pm 30.2 W 8 13 1006.2 - 0.0 - - - - - - -
31/03:00pm 30.6 W 8 13 1006.1 - 0.0 - - - - - - -
31/02:30pm 30.0 W 7 14 1006.4 - 0.0 - - - - - - -
31/02:00pm 31.2 W 8 14 1006.8 - 0.0 - - - - - - -
31/01:30pm 31.7 W 8 16 1007.4 - 0.0 - - - - - - -
31/01:00pm 31.3 W 8 13 1007.8 - 0.0 - - - - - - -
31/12:30pm 31.3 W 8 14 1008.1 - 0.0 - - - - - - -
31/12:00pm 31.8 W 6 10 1008.4 - 0.0 - - - - - - -
31/11:30am 30.9 W 7 12 1008.8 - 0.0 - - - - - - -
31/11:00am 30.5 WNW 6 10 1009.0 - 0.0 - - - - - - -
31/10:30am 30.3 W 6 13 1009.1 - 0.0 - - - - - - -
31/10:00am 29.6 W 8 12 1009.3 - 0.0 - - - - - - -
31/09:30am 29.3 WNW 5 9 1009.1 - 0.0 - - - - - - -
31/09:00am 29.5 W 5 10 1008.9 - 3.4 - - - - - - -
31/08:30am 27.7 WNW 4 9 1008.8 - 3.4 - - - - - - -
31/08:00am 26.6 WNW 3 5 1008.6 - 3.4 - - - - - - -
31/07:30am 25.9 NNE 1 3 1008.3 - 3.4 - - - - - - -
31/07:00am 24.6 CALM 0 0 1008.0 - 3.4 - - - - - - -
31/06:30am 23.9 CALM 0 0 1007.7 - 3.2 - - - - - - -
31/06:00am 23.9 CALM 0 0 1007.5 - 3.2 - - - - - - -
31/05:30am 24.1 CALM 0 1 1007.4 - 3.2 - - - - - - -
31/05:00am 24.4 NE 1 3 1007.2 - 3.2 - - - - - - -
31/04:30am 24.6 CALM 0 2 1007.2 - 3.2 - - - - - - -
31/04:00am 24.5 CALM 0 0 1007.4 - 3.2 - - - - - - -
31/03:30am 24.6 CALM 0 0 1007.4 - 3.2 - - - - - - -
31/03:00am 24.4 CALM 0 3 1007.6 - 2.8 - - - - - - -
31/02:30am 24.2 CALM 0 0 1007.7 - 2.8 - - - - - - -
31/02:00am 24.1 CALM 0 0 1008.1 - 2.8 - - - - - - -
31/01:30am 24.3 CALM 0 0 1008.5 - 2.8 - - - - - - -
31/01:00am 24.4 CALM 0 0 1008.7 - 2.8 - - - - - - -
31/12:30am 24.3 CALM 0 0 1009.0 - 2.8 - - - - - - -
31/12:00am 24.3 CALM 0 0 1009.1 - 2.8 - - - - - - -
 
Date/Time
CST
Temp

°C
Wind Pressure Rain
since 9am
mm
Weather Cloud Vis
km
Sea
Height
m
Swell
Dir
 
Speed
knots
Gust
knots
hPa Trend Height
m
Period
s
Dir
30/11:30pm 24.3 SSE 1 2 1009.5 - 2.8 - - - - - - -
30/11:00pm 24.1 CALM 0 0 1009.7 - 2.8 - - - - - - -
30/10:30pm 24.0 CALM 0 0 1009.6 - 2.6 - - - - - - -
30/10:00pm 23.8 ESE 1 2 1009.4 - 2.6 - - - - - - -
30/09:30pm 24.4 NNW 2 8 1009.4 - 0.6 - - - - - - -
30/09:00pm 26.0 SSW 2 4 1008.7 - 0.4 - - - - - - -
30/08:30pm 26.2 S 3 5 1008.2 - 0.4 - - - - - - -
30/08:00pm 26.7 S 3 6 1008.1 - 0.4 - - - - - - -
30/07:30pm 28.4 W 5 9 1007.6 - 0.4 - - - - - - -
30/07:00pm 28.6 W 7 10 1007.1 - 0.4 - - - - - - -
30/06:30pm 28.6 W 5 9 1006.8 - 0.4 - - - - - - -
30/06:00pm 27.4 SW 1 2 1006.6 - 0.4 - - - - - - -
30/05:30pm 27.0 NW 3 6 1006.2 - 0.4 - - - - - - -
30/05:00pm 28.2 W 4 9 1006.1 - 0.4 - - - - - - -
30/04:30pm 28.3 W 4 7 1005.8 - 0.4 - - - - - - -
30/04:00pm 30.1 WNW 7 12 1005.8 - 0.2 - - - - - - -
30/03:30pm 30.0 W 4 7 1006.0 - 0.0 - - - - - - -
30/03:00pm 29.4 WSW 5 9 1006.2 - 0.0 - - - - - - -
30/02:30pm 28.7 WSW 2 5 1006.6 - 0.0 - - - - - - -
30/02:00pm 27.8 W 4 5 1006.9 - 0.0 - - - - - - -
30/01:30pm 26.9 W 4 7 1007.6 - 0.0 - - - - - - -
30/01:00pm 27.6 W 6 10 1008.1 - 0.0 - - - - - - -
30/12:30pm 30.3 WNW 7 15 1008.2 - 0.0 - - - - - - -
30/12:00pm 31.3 WNW 5 9 1008.4 - 0.0 - - - - - - -
30/11:30am 31.2 NW 5 9 1008.9 - 0.0 - - - - - - -
30/11:00am 31.1 WNW 4 7 1008.8 - 0.0 - - - - - - -
30/10:30am 30.6 WNW 6 12 1009.0 - 0.0 - - - - - - -
30/10:00am 30.1 NW 5 9 1008.8 - 0.0 - - - - - - -
30/09:30am 29.8 NW 5 8 1008.9 - 0.0 - - - - - - -
30/09:00am 29.5 WNW 4 8 1008.9 - 0.2 - - - - - - -
30/08:30am 28.3 WNW 2 6 1008.5 - 0.2 - - - - - - -
30/08:00am 28.2 W 1 3 1007.8 - 0.2 - - - - - - -
30/07:30am 26.4 W 3 5 1007.3 - 0.2 - - - - - - -
30/07:00am 25.5 CALM 0 0 1006.5 - 0.2 - - - - - - -
30/06:30am 25.3 CALM 0 0 1006.1 - 0.2 - - - - - - -
30/06:00am 25.9 CALM 0 0 1005.8 - 0.2 - - - - - - -
30/05:30am 26.6 CALM 0 2 1005.9 - 0.2 - - - - - - -
30/05:00am 26.9 WNW 2 5 1006.1 - 0.2 - - - - - - -
30/04:30am 26.8 WNW 3 6 1006.3 - 0.2 - - - - - - -
30/04:00am 26.6 WNW 4 8 1006.4 - 0.2 - - - - - - -
30/03:30am 26.6 WNW 3 8 1006.6 - 0.2 - - - - - - -
30/03:00am 26.4 NW 3 6 1006.5 - 0.2 - - - - - - -
30/02:30am 26.8 NW 4 8 1006.7 - 0.2 - - - - - - -
30/02:00am 26.5 NNW 2 4 1007.0 - 0.2 - - - - - - -
30/01:30am 26.6 NNW 2 6 1007.7 - 0.2 - - - - - - -
30/01:00am 26.6 NNW 2 5 1008.0 - 0.2 - - - - - - -
30/12:30am 26.5 N 4 6 1008.3 - 0.2 - - - - - - -
30/12:00am 25.3 N 1 3 1008.8 - 0.2 - - - - - - -
 
Date/Time
CST
Temp

°C
Wind Pressure Rain
since 9am
mm
Weather Cloud Vis
km
Sea
Height
m
Swell
Dir
 
Speed
knots
Gust
knots
hPa Trend Height
m
Period
s
Dir
29/11:30pm 24.9 CALM 0 0 1008.7 - 0.2 - - - - - - -
29/11:00pm 25.0 CALM 0 0 1008.7 - 0.2 - - - - - - -
29/10:30pm 24.7 CALM 0 0 1008.5 - 0.2 - - - - - - -
29/10:00pm 25.0 CALM 0 0 1008.2 - 0.2 - - - - - - -
29/09:30pm 25.1 CALM 0 0 1008.0 - 0.2 - - - - - - -
29/09:00pm 25.4 E 1 3 1007.9 - 0.2 - - - - - - -
29/08:30pm 25.7 CALM 0 1 1007.7 - 0.2 - - - - - - -
29/08:00pm 25.7 ENE 1 4 1007.1 - 0.2 - - - - - - -
29/07:30pm 26.1 SSE 3 4 1006.1 - 0.2 - - - - - - -
29/07:00pm 26.9 ESE 3 5 1006.0 - 0.2 - - - - - - -
29/06:30pm 28.3 E 3 6 1005.5 - 0.2 - - - - - - -
29/06:00pm 29.0 WNW 3 5 1005.1 - 0.2 - - - - - - -
29/05:30pm 29.1 WNW 3 7 1004.6 - 0.2 - - - - - - -
29/05:00pm 29.4 WNW 4 7 1004.1 - 0.2 - - - - - - -
29/04:30pm 30.4 WNW 5 8 1003.9 - 0.2 - - - - - - -
29/04:00pm 31.8 W 4 8 1004.0 - 0.2 - - - - - - -
29/03:30pm 31.9 WNW 4 9 1003.9 - 0.2 - - - - - - -
29/03:00pm 31.8 WSW 4 7 1004.4 - 0.2 - - - - - - -
29/02:30pm 31.6 W 4 6 1004.6 - 0.2 - - - - - - -
29/02:00pm 31.2 W 4 7 1004.9 - 0.2 - - - - - - -
29/01:30pm 31.2 WSW 4 7 1005.4 - 0.2 - - - - - - -
29/01:00pm 30.9 W 4 6 1005.8 - 0.2 - - - - - - -
29/12:30pm 30.1 W 5 9 1006.4 - 0.2 - - - - - - -
29/12:00pm 30.5 WNW 3 7 1006.8 - 0.2 - - - - - - -
29/11:30am 29.9 WNW 4 8 1007.2 - 0.2 - - - - - - -
29/11:00am 30.0 CALM 0 1 1007.2 - 0.2 - - - - - - -
29/10:30am 29.5 WNW 3 5 1007.5 - 0.2 - - - - - - -
29/10:00am 29.4 NNE 2 4 1007.7 - 0.2 - - - - - - -
29/09:30am 29.0 N 2 5 1007.3 - 0.0 - - - - - - -
29/09:00am 28.4 E 3 5 1007.2 - 29.2 - - - - - - -
29/08:30am 27.0 NE 2 3 1006.9 - 29.2 - - - - - - -
29/08:00am 26.2 CALM 0 0 1006.8 - 29.2 - - - - - - -
29/07:30am 24.6 CALM 0 0 1006.2 - 29.2 - - - - - - -
29/07:00am 23.9 CALM 0 0 1005.7 - 29.2 - - - - - - -
29/06:30am 23.9 CALM 0 2 1005.4 - 29.2 - - - - - - -
29/06:00am 23.9 CALM 0 0 1005.4 - 29.2 - - - - - - -
29/05:30am 23.9 CALM 0 0 1005.6 - 29.2 - - - - - - -
29/05:00am 23.9 ESE 2 3 1005.6 - 29.2 - - - - - - -
29/04:30am 24.0 ESE 2 4 1005.7 - 29.2 - - - - - - -
29/04:00am 24.1 ESE 3 4 1005.7 - 29.2 - - - - - - -
29/03:30am 24.1 ESE 2 4 1005.8 - 29.2 - - - - - - -
29/03:00am 24.2 ESE 3 5 1005.9 - 29.2 - - - - - - -
29/02:30am 24.3 SE 3 4 1006.0 - 29.2 - - - - - - -
29/02:00am 24.2 ESE 2 3 1006.5 - 29.2 - - - - - - -
29/01:30am 24.1 CALM 0 0 1006.5 - 29.2 - - - - - - -
29/01:00am 24.0 CALM 0 0 1006.8 - 29.2 - - - - - - -
29/12:30am 23.9 CALM 0 0 1007.0 - 29.2 - - - - - - -
29/12:00am 23.7 CALM 0 0 1007.2 - 29.2 - - - - - - -
 
Date/Time
CST
Temp

°C
Wind Pressure Rain
since 9am
mm
Weather Cloud Vis
km
Sea
Height
m
Swell
Dir
 
Speed
knots
Gust
knots
hPa Trend Height
m
Period
s
Dir
28/11:30pm 23.5 ENE 2 3 1007.4 - 29.2 - - - - - - -
28/11:00pm 23.3 E 3 5 1007.8 - 29.2 - - - - - - -
28/10:30pm 23.2 E 4 7 1008.1 - 29.0 - - - - - - -
28/10:00pm 23.1 SE 3 6 1007.9 - 29.0 - - - - - - -
28/09:30pm 23.9 SE 4 7 1007.1 - 29.0 - - - - - - -
28/09:00pm 24.1 S 1 3 1006.6 - 29.0 - - - - - - -
28/08:30pm 23.8 CALM 0 0 1006.4 - 29.0 - - - - - - -
28/08:00pm 23.6 NE 1 3 1006.4 - 29.0 - - - - - - -
28/07:30pm 23.4 CALM 0 2 1005.7 - 28.8 - - - - - - -
28/07:00pm 23.1 N 1 4 1005.0 - 28.4 - - - - - - -
28/06:30pm 22.8 SSW 1 3 1004.2 - 28.2 - - - - - - -
28/06:00pm 22.7 S 5 8 1004.5 - 27.0 Rain - - - - - -
28/05:30pm 22.9 SW 4 7 1004.4 - 16.4 - - - - - - -
28/05:00pm 23.8 ESE 2 6 1004.3 - 4.0 - - - - - - -

Other Formats:

Comma delimited format used in spreadsheet applications
http://www.bom.gov.au/fwo/IDD60701/IDD60701.99501.axf

JavaScript Object Notation format (JSON) in row-major order
http://www.bom.gov.au/fwo/IDD60701/IDD60701.99501.json